Montreal / St-Lazare Airport

CST3 · Quebec, 加拿大

罗盘
风向 的 风向 140° Montreal / St-Lazare Airport 2/20
风: 9 kt, 3 beaufort

5 kt

8 kt
改变
0 5.000 10.000 15.000 20.000
FEW 3.500 ft
OVC 12.000 ft
SPECI CYUL 021900Z 14009KT 30SM FEW035 OVC120 03/M04 A3032 RMK SC1AC7 SLP272

METAR Montreal / St-Lazare Airport - CST3

Montreal / St-Lazare Airport是,加拿大中的小机场。 该机场有2条跑道: 2/20 和 8/26. 该领域的国际民航组织标志是CST3.

这份报告是针对2022年12月2日 14:00, 当地时间在蒙特利尔皮埃尔·埃利奥特·特鲁多国际机场进行的。

机场观察

风向为140°,速度为9 kt。

可见度为30 mi。

有几云在3.500 ft的高度 和 乌云密布在12.000 ft的高度。 破损或更高的上限为12.000 ft。

温度为3 °C,阵风为-3 °C。 露点为-4 °C,相对湿度为60%。 海平面上的气压为30,32 inHg (QNH)。

白天

今天,太阳从07:17升起,在16:14降落。 这适用于Montreal / St-Lazare Airport,世界夏令时可能有所不同。 当地时间与世界标准时间之间的时差为-5 小时。 当前,没有夏令时有效。

公司介绍

我们没有关于这个机场的公司信息。

体会

到Vliegles.nl去找飞行课程,跳伞和其他飞行体验。 浏览页面,了解Montreal / St-Lazare Airport附近所有可用的活动。 你也可以使用搜索功能来寻找你所在地附近的特定飞行课程、跳伞或其他飞行体验。

跑道

Id 标题 侧风 逆风 侧风 %
2/20 020°-200° 8 kt 5 kt 87 %
8/26 080°-260° 8 kt 5 kt 87 %

逆风成分最大的方向会被突出显示,并用于横风计算。 这并不一定意味着这个方向在使用。

乌云

3.500 ft FEW 几云
12.000 ft OVC 乌云密布

温度 & 天气

温度 3 °C
露点 -4 °C
相对湿度 60%
风寒 -3 °C
Kp-index 1 (0-9)

评论

SLP272海平面压力为30,33 inHg (30,33 inHg)
SC1AC7

白天

日出
07:15
中午
11:44
日落
16:13 (1:53)

小工具

你想在你的网站上有一个关于Montreal / St-Lazare Airport的当前航空天气(METAR)的小部件吗?

显示HTML代码

我们和第三方通过cookies跟踪您在我们网站上的互联网行为。如果你继续,我们认为你同意我们的饼干政策